Maria Desgagnes — VCWL — position and weather

sailwx.info

Track history (hours):
 
Tides and Currents Weather Stations Pressure Air Temp Water Temp Dewpoint Dewpoint Depression Visibility Wind Speed Wind Dir Waves Ship Positions

Maria Desgagnes

Last reported at 2017-Jan-22 00:00 UTC. Time now 2017-Jan-22 01:51 UTC.
Position N 49°00' W 060°06'.

Length 120 m; draft 7.2 m.

Type: Ship (hazmat cat A). MMSI: 316285000.

Wind from 320 at 8 knots

Barometer 1002.6 mb
Air temperature -2.2 ° C
Dewpoint -4.6 ° C
Water temperature 0.6 ° C

Date/timePositionNaut miles runAvg speedWind from/ knotsBaromVisibWave heightAir tempDewpointWater temp
2017-Jan-22 00:00N 49°00' W 060°06'4013.3 320 / 81002.6 -2.2-4.6 0.6
2017-Jan-21 21:00N 49°06' W 059°06'3514.1 010 / 91002.8 -1.3-3.0 0.8
2017-Jan-21 18:29N 49°05' W 058°12'612.6
2017-Jan-21 18:00N 49°00' W 058°06'410.2 340 / 41002.5 -3.8-4.6 1.3
2017-Jan-21 17:34N 48°58' W 057°60'1 0.8
2017-Jan-21 16:34N 48°58' W 057°59'0 0.0
2017-Jan-21 15:24N 48°58' W 057°59'512.1
2017-Jan-21 15:00N 48°54' W 057°54'5 7.5 090 / 31005.9 -7.0-7.5
2017-Jan-21 14:20N 48°58' W 057°59'5 2.1
2017-Jan-21 12:00N 48°54' W 057°54'5 2.0 090 / 41008.1 -9.1-9.7
2017-Jan-21 09:33N 48°58' W 057°59'5 8.6
2017-Jan-21 09:00N 48°54' W 057°54'511.8 1009.6 -8.5-9.2 2.1
2017-Jan-21 08:34N 48°58' W 057°59'1 1.2
2017-Jan-21 07:34N 48°58' W 058°01'0 0.0
2017-Jan-21 06:34N 48°58' W 058°01'4 6.9
2017-Jan-21 06:00N 48°54' W 058°00'4 9.0 090 / 21010.4 -6.9-7.6
2017-Jan-21 05:34N 48°58' W 058°01'0 0.0
2017-Jan-21 04:34N 48°58' W 058°01'0 0.0
2017-Jan-21 03:33N 48°58' W 058°01'4 6.9
2017-Jan-21 03:00N 48°54' W 058°00'4 9.0 1012.6 -5.0-6.0
2017-Jan-21 02:34N 48°58' W 058°01'0 0.0
2017-Jan-21 01:34N 48°58' W 058°01'0 0.0
2017-Jan-21 00:33N 48°58' W 058°01'4 6.9
2017-Jan-21 00:00N 48°54' W 058°00'4 9.0 090 / 31014.0 -2.3-4.1
2017-Jan-20 23:34N 48°58' W 058°01'0 0.0
2017-Jan-20 22:34N 48°58' W 058°01'0 0.0
2017-Jan-20 21:34N 48°58' W 058°01'4 6.9
2017-Jan-20 21:00N 48°54' W 058°00'4 9.0 100 / 41014.6 -0.9-3.1
2017-Jan-20 20:33N 48°58' W 058°01'0 0.0
2017-Jan-20 19:34N 48°58' W 058°01'0 0.0
2017-Jan-20 18:34N 48°58' W 058°01'4 6.9
2017-Jan-20 18:00N 48°54' W 058°00'4 9.0 080 / 61014.5 -1.0-3.7
2017-Jan-20 17:34N 48°58' W 058°01'4 1.5
2017-Jan-20 15:00N 48°54' W 058°00'4 9.0 110 / 71016.2 -1.5-4.8 2.3
2017-Jan-20 14:33N 48°58' W 058°01'1 0.6
2017-Jan-20 13:34N 48°58' W 058°00'6 5.6
2017-Jan-20 12:33N 49°02' W 058°07'814.9
2017-Jan-20 12:00N 49°06' W 058°18'3511.8 120 / 171014.3 -3.3-4.6 1.5
2017-Jan-20 09:00N 49°06' W 059°12'4113.7 160 / 191013.3 -1.2-1.7 0.7
2017-Jan-20 06:00N 48°54' W 060°12'4314.5 180 / 151013.1 -0.5-0.6 0.5
2017-Jan-20 03:00N 48°54' W 061°18'3913.1 180 / 171013.0 -1.1-1.2 0.1
2017-Jan-20 00:00N 48°54' W 062°18'4013.3 190 / 191011.9 -1.3-1.4-0.1
2017-Jan-19 21:00N 49°00' W 063°18'4314.4 190 / 211010.9 -1.7-2.2 0.1
2017-Jan-19 18:00N 49°18' W 064°18'4314.5 180 / 161010.6 -3.5-4.6-0.1
2017-Jan-19 15:00N 49°24' W 065°24'4013.2 220 / 111012.1 -3.7-7.8-0.4
2017-Jan-19 12:00N 49°18' W 066°24'4113.7 180 / 151012.1 -5.1-7.0-0.8
2017-Jan-19 09:00N 49°06' W 067°24'4314.3 180 / 181012.9 -5.8-7.0-0.8
2017-Jan-19 06:00N 48°42' W 068°18'4314.4 170 / 131013.6 -5.2-6.1-0.5
2017-Jan-19 03:00N 48°18' W 069°12'3411.3 170 / 201015.7 -4.2-8.9 1.0
2017-Jan-19 00:00N 47°54' W 069°48'3912.9 200 / 51017.5 -5.4-10.4 0.1
2017-Jan-18 21:00N 47°24' W 070°24'4615.3 320 / 121018.5 -6.4-12.8-0.1
2017-Jan-18 18:00N 46°48' W 071°06'4 1.4 070 / 151017.1 -5.9-10.1 0.5
2017-Jan-18 15:00N 46°48' W 071°12'0 0.0 050 / 111019.8 -7.3-11.3
2017-Jan-18 12:00N 46°48' W 071°12'0 0.0 050 / 131021.0 -7.8-12.7
2017-Jan-18 09:00N 46°48' W 071°12'0 0.0 050 / 131021.7 -8.0-12.5
2017-Jan-18 06:00N 46°48' W 071°12'0 0.0 050 / 141022.5 -7.8-11.4
2017-Jan-18 03:00N 46°48' W 071°12'0 0.0 050 / 171023.2 -7.9-11.0
2017-Jan-18 00:00N 46°48' W 071°12'0 0.0 060 / 141024.8 -7.3-11.5
2017-Jan-17 21:00N 46°48' W 071°12'0 0.0 060 / 141025.2 -6.5-10.5
2017-Jan-17 18:00N 46°48' W 071°12'4 1.4 050 / 131025.9 -5.1-11.0 0.7
2017-Jan-17 15:00N 46°48' W 071°06'10 3.4 090 / 121027.3 -3.9-9.7 0.6
2017-Jan-17 12:00N 46°54' W 070°54'0 0.0 020 / 31025.0 -4.6-9.6 0.5
2017-Jan-17 09:00N 46°54' W 070°54'3612.1 310 / 111023.2 -2.0-8.6 0.5
2017-Jan-17 06:00N 47°24' W 070°24'3411.4 300 / 61020.7 -0.8-9.1 0.2
2017-Jan-17 03:00N 47°48' W 069°48'4113.7 300 / 181017.5 -0.2-6.2-0.0
2017-Jan-17 00:00N 48°24' W 069°18'3210.8 240 / 241011.9 -1.3-4.8 1.7
2017-Jan-16 21:00N 48°30' W 068°30'0 0.0 200 / 131012.1 -4.6-8.2
2017-Jan-16 18:00N 48°30' W 068°30'0 0.0 190 / 171012.4 -7.4-11.2
2017-Jan-16 15:00N 48°30' W 068°30'0 0.0 190 / 171016.4 -11.5-15.2
2017-Jan-16 12:00N 48°30' W 068°30'0 0.0 200 / 141020.4 -14.9-18.8
2017-Jan-16 09:00N 48°30' W 068°30'0 0.0 180 / 131024.9 -16.7-20.6
2017-Jan-16 06:00N 48°30' W 068°30'0 0.0 180 / 121027.0 -16.3-19.5
2017-Jan-16 03:00N 48°30' W 068°30'0 0.0 280 / 81028.4 -13.3-17.6
2017-Jan-16 00:00N 48°30' W 068°30'0 0.0 310 / 121027.8 -12.7-18.9
2017-Jan-15 21:00N 48°30' W 068°30'0 0.0 280 / 71026.6 -12.8-19.3
2017-Jan-15 18:00N 48°30' W 068°30'0 0.0 280 / 161025.4 -13.7-19.9
2017-Jan-15 15:00N 48°30' W 068°30'0 0.0 320 / 201024.4 -14.1-19.5
2017-Jan-15 12:00N 48°30' W 068°30'0 0.0 330 / 221019.7 -11.7-16.9
2017-Jan-15 09:00N 48°30' W 068°30'0 0.0 290 / 181016.9 -10.3-13.6
2017-Jan-15 06:00N 48°30' W 068°30'0 0.0 190 / 131017.5 -13.2-15.1
2017-Jan-15 03:00N 48°30' W 068°30'0 0.0 190 / 131019.8 -13.7-18.2
2017-Jan-15 00:00N 48°30' W 068°30'0 0.0 190 / 161022.5 -14.4-19.9
2017-Jan-14 21:00N 48°30' W 068°30'0 0.0 190 / 121026.8 -15.4-20.5
2017-Jan-14 18:00N 48°30' W 068°30'0 0.0 210 / 181030.1 -16.1-19.9
2017-Jan-14 15:00N 48°30' W 068°30'0 0.0 270 / 171035.0 -17.1-21.0
2017-Jan-14 12:00N 48°30' W 068°30'0 0.0 280 / 161035.6 -17.5-21.6
2017-Jan-14 09:00N 48°30' W 068°30'0 0.0 280 / 191035.3 -17.1-21.6
2017-Jan-14 06:00N 48°30' W 068°30'0 0.0 290 / 211035.1 -16.6-21.5
2017-Jan-14 03:00N 48°30' W 068°30'0 0.0 290 / 241034.1 -15.4-21.5
2017-Jan-14 00:00N 48°30' W 068°30'0 0.0 300 / 341030.6 -14.5-21.7
2017-Jan-13 21:00N 48°30' W 068°30'0 0.0 290 / 311025.1 -10.7-18.8
2017-Jan-13 18:00N 48°30' W 068°30'0 0.0 270 / 301019.1 -9.5-17.9
2017-Jan-13 15:00N 48°30' W 068°30'0 0.0 270 / 271016.4 -7.0-12.7
2017-Jan-13 12:00N 48°30' W 068°30'0 0.0 260 / 311011.0 -4.8-10.2
2017-Jan-13 09:00N 48°30' W 068°30'0 0.0 230 / 171008.1 -2.8-4.3
2017-Jan-13 06:00N 48°30' W 068°30'0 0.0 300 / 101007.7 -2.8-2.9
2017-Jan-13 03:00N 48°30' W 068°30'0 0.0 330 / 71007.9 -1.8-1.9
2017-Jan-12 21:00N 48°30' W 068°30'0 0.0 050 / 61008.2 0.7 0.6-0.3
2017-Jan-12 18:00N 48°30' W 068°30'0 0.0 080 / 71006.4 1.0 0.3-0.3
2017-Jan-12 15:00N 48°30' W 068°30'0 0.0 340 / 61009.8 2.6-0.9
2017-Jan-12 12:00N 48°30' W 068°30'0 0.0 240 / 131010.2 4.4-4.5
2017-Jan-12 09:00N 48°30' W 068°30'0 0.0 210 / 221009.6 5.7-5.6
2017-Jan-12 06:00N 48°30' W 068°30'0 0.0 200 / 161011.4 4.6-4.3
2017-Jan-12 03:00N 48°30' W 068°30'0 0.0 200 / 201015.5 2.5-2.8
2017-Jan-12 00:00N 48°30' W 068°30'   210 / 171017.5 2.3-2.5
Track history (hours):
 
Tides and Currents Weather Stations Pressure Air Temp Water Temp Dewpoint Dewpoint Depression Visibility Wind Speed Wind Dir Waves Ship Positions

Maria Desgagnes

Last reported at 2017-Jan-22 00:00 UTC. Time now 2017-Jan-22 01:51 UTC.
Position N 49°00' W 060°06'.

Length 120 m; draft 7.2 m.

Type: Ship (hazmat cat A). MMSI: 316285000.

Wind from 320 at 8 knots

Barometer 1002.6 mb
Air temperature -2.2 ° C
Dewpoint -4.6 ° C
Water temperature 0.6 ° C

Date/timePositionNaut miles runAvg speedWind from/ knotsBaromVisibWave heightAir tempDewpointWater temp
2017-Jan-22 00:00N 49°00' W 060°06'4013.3 320 / 81002.6 -2.2-4.6 0.6
2017-Jan-21 21:00N 49°06' W 059°06'3514.1 010 / 91002.8 -1.3-3.0 0.8
2017-Jan-21 18:29N 49°05' W 058°12'612.6
2017-Jan-21 18:00N 49°00' W 058°06'410.2 340 / 41002.5 -3.8-4.6 1.3
2017-Jan-21 17:34N 48°58' W 057°60'1 0.8
2017-Jan-21 16:34N 48°58' W 057°59'0 0.0
2017-Jan-21 15:24N 48°58' W 057°59'512.1
2017-Jan-21 15:00N 48°54' W 057°54'5 7.5 090 / 31005.9 -7.0-7.5
2017-Jan-21 14:20N 48°58' W 057°59'5 2.1
2017-Jan-21 12:00N 48°54' W 057°54'5 2.0 090 / 41008.1 -9.1-9.7
2017-Jan-21 09:33N 48°58' W 057°59'5 8.6
2017-Jan-21 09:00N 48°54' W 057°54'511.8 1009.6 -8.5-9.2 2.1
2017-Jan-21 08:34N 48°58' W 057°59'1 1.2
2017-Jan-21 07:34N 48°58' W 058°01'0 0.0
2017-Jan-21 06:34N 48°58' W 058°01'4 6.9
2017-Jan-21 06:00N 48°54' W 058°00'4 9.0 090 / 21010.4 -6.9-7.6
2017-Jan-21 05:34N 48°58' W 058°01'0 0.0
2017-Jan-21 04:34N 48°58' W 058°01'0 0.0
2017-Jan-21 03:33N 48°58' W 058°01'4 6.9
2017-Jan-21 03:00N 48°54' W 058°00'4 9.0 1012.6 -5.0-6.0
2017-Jan-21 02:34N 48°58' W 058°01'0 0.0
2017-Jan-21 01:34N 48°58' W 058°01'0 0.0
2017-Jan-21 00:33N 48°58' W 058°01'4 6.9
2017-Jan-21 00:00N 48°54' W 058°00'4 9.0 090 / 31014.0 -2.3-4.1
2017-Jan-20 23:34N 48°58' W 058°01'0 0.0
2017-Jan-20 22:34N 48°58' W 058°01'0 0.0
2017-Jan-20 21:34N 48°58' W 058°01'4 6.9
2017-Jan-20 21:00N 48°54' W 058°00'4 9.0 100 / 41014.6 -0.9-3.1
2017-Jan-20 20:33N 48°58' W 058°01'0 0.0
2017-Jan-20 19:34N 48°58' W 058°01'0 0.0
2017-Jan-20 18:34N 48°58' W 058°01'4 6.9
2017-Jan-20 18:00N 48°54' W 058°00'4 9.0 080 / 61014.5 -1.0-3.7
2017-Jan-20 17:34N 48°58' W 058°01'4 1.5
2017-Jan-20 15:00N 48°54' W 058°00'4 9.0 110 / 71016.2 -1.5-4.8 2.3
2017-Jan-20 14:33N 48°58' W 058°01'1 0.6
2017-Jan-20 13:34N 48°58' W 058°00'6 5.6
2017-Jan-20 12:33N 49°02' W 058°07'814.9
2017-Jan-20 12:00N 49°06' W 058°18'3511.8 120 / 171014.3 -3.3-4.6 1.5
2017-Jan-20 09:00N 49°06' W 059°12'4113.7 160 / 191013.3 -1.2-1.7 0.7
2017-Jan-20 06:00N 48°54' W 060°12'4314.5 180 / 151013.1 -0.5-0.6 0.5
2017-Jan-20 03:00N 48°54' W 061°18'3913.1 180 / 171013.0 -1.1-1.2 0.1
2017-Jan-20 00:00N 48°54' W 062°18'4013.3 190 / 191011.9 -1.3-1.4-0.1
2017-Jan-19 21:00N 49°00' W 063°18'4314.4 190 / 211010.9 -1.7-2.2 0.1
2017-Jan-19 18:00N 49°18' W 064°18'4314.5 180 / 161010.6 -3.5-4.6-0.1
2017-Jan-19 15:00N 49°24' W 065°24'4013.2 220 / 111012.1 -3.7-7.8-0.4
2017-Jan-19 12:00N 49°18' W 066°24'4113.7 180 / 151012.1 -5.1-7.0-0.8
2017-Jan-19 09:00N 49°06' W 067°24'4314.3 180 / 181012.9 -5.8-7.0-0.8
2017-Jan-19 06:00N 48°42' W 068°18'4314.4 170 / 131013.6 -5.2-6.1-0.5
2017-Jan-19 03:00N 48°18' W 069°12'3411.3 170 / 201015.7 -4.2-8.9 1.0
2017-Jan-19 00:00N 47°54' W 069°48'3912.9 200 / 51017.5 -5.4-10.4 0.1
2017-Jan-18 21:00N 47°24' W 070°24'4615.3 320 / 121018.5 -6.4-12.8-0.1
2017-Jan-18 18:00N 46°48' W 071°06'4 1.4 070 / 151017.1 -5.9-10.1 0.5
2017-Jan-18 15:00N 46°48' W 071°12'0 0.0 050 / 111019.8 -7.3-11.3
2017-Jan-18 12:00N 46°48' W 071°12'0 0.0 050 / 131021.0 -7.8-12.7
2017-Jan-18 09:00N 46°48' W 071°12'0 0.0 050 / 131021.7 -8.0-12.5
2017-Jan-18 06:00N 46°48' W 071°12'0 0.0 050 / 141022.5 -7.8-11.4
2017-Jan-18 03:00N 46°48' W 071°12'0 0.0 050 / 171023.2 -7.9-11.0
2017-Jan-18 00:00N 46°48' W 071°12'0 0.0 060 / 141024.8 -7.3-11.5
2017-Jan-17 21:00N 46°48' W 071°12'0 0.0 060 / 141025.2 -6.5-10.5
2017-Jan-17 18:00N 46°48' W 071°12'4 1.4 050 / 131025.9 -5.1-11.0 0.7
2017-Jan-17 15:00N 46°48' W 071°06'10 3.4 090 / 121027.3 -3.9-9.7 0.6
2017-Jan-17 12:00N 46°54' W 070°54'0 0.0 020 / 31025.0 -4.6-9.6 0.5
2017-Jan-17 09:00N 46°54' W 070°54'3612.1 310 / 111023.2 -2.0-8.6 0.5
2017-Jan-17 06:00N 47°24' W 070°24'3411.4 300 / 61020.7 -0.8-9.1 0.2
2017-Jan-17 03:00N 47°48' W 069°48'4113.7 300 / 181017.5 -0.2-6.2-0.0
2017-Jan-17 00:00N 48°24' W 069°18'3210.8 240 / 241011.9 -1.3-4.8 1.7
2017-Jan-16 21:00N 48°30' W 068°30'0 0.0 200 / 131012.1 -4.6-8.2
2017-Jan-16 18:00N 48°30' W 068°30'0 0.0 190 / 171012.4 -7.4-11.2
2017-Jan-16 15:00N 48°30' W 068°30'0 0.0 190 / 171016.4 -11.5-15.2
2017-Jan-16 12:00N 48°30' W 068°30'0 0.0 200 / 141020.4 -14.9-18.8
2017-Jan-16 09:00N 48°30' W 068°30'0 0.0 180 / 131024.9 -16.7-20.6
2017-Jan-16 06:00N 48°30' W 068°30'0 0.0 180 / 121027.0 -16.3-19.5
2017-Jan-16 03:00N 48°30' W 068°30'0 0.0 280 / 81028.4 -13.3-17.6
2017-Jan-16 00:00N 48°30' W 068°30'0 0.0 310 / 121027.8 -12.7-18.9
2017-Jan-15 21:00N 48°30' W 068°30'0 0.0 280 / 71026.6 -12.8-19.3
2017-Jan-15 18:00N 48°30' W 068°30'0 0.0 280 / 161025.4 -13.7-19.9
2017-Jan-15 15:00N 48°30' W 068°30'0 0.0 320 / 201024.4 -14.1-19.5
2017-Jan-15 12:00N 48°30' W 068°30'0 0.0 330 / 221019.7 -11.7-16.9
2017-Jan-15 09:00N 48°30' W 068°30'0 0.0 290 / 181016.9 -10.3-13.6
2017-Jan-15 06:00N 48°30' W 068°30'0 0.0 190 / 131017.5 -13.2-15.1
2017-Jan-15 03:00N 48°30' W 068°30'0 0.0 190 / 131019.8 -13.7-18.2
2017-Jan-15 00:00N 48°30' W 068°30'0 0.0 190 / 161022.5 -14.4-19.9
2017-Jan-14 21:00N 48°30' W 068°30'0 0.0 190 / 121026.8 -15.4-20.5
2017-Jan-14 18:00N 48°30' W 068°30'0 0.0 210 / 181030.1 -16.1-19.9
2017-Jan-14 15:00N 48°30' W 068°30'0 0.0 270 / 171035.0 -17.1-21.0
2017-Jan-14 12:00N 48°30' W 068°30'0 0.0 280 / 161035.6 -17.5-21.6
2017-Jan-14 09:00N 48°30' W 068°30'0 0.0 280 / 191035.3 -17.1-21.6
2017-Jan-14 06:00N 48°30' W 068°30'0 0.0 290 / 211035.1 -16.6-21.5
2017-Jan-14 03:00N 48°30' W 068°30'0 0.0 290 / 241034.1 -15.4-21.5
2017-Jan-14 00:00N 48°30' W 068°30'0 0.0 300 / 341030.6 -14.5-21.7
2017-Jan-13 21:00N 48°30' W 068°30'0 0.0 290 / 311025.1 -10.7-18.8
2017-Jan-13 18:00N 48°30' W 068°30'0 0.0 270 / 301019.1 -9.5-17.9
2017-Jan-13 15:00N 48°30' W 068°30'0 0.0 270 / 271016.4 -7.0-12.7
2017-Jan-13 12:00N 48°30' W 068°30'0 0.0 260 / 311011.0 -4.8-10.2
2017-Jan-13 09:00N 48°30' W 068°30'0 0.0 230 / 171008.1 -2.8-4.3
2017-Jan-13 06:00N 48°30' W 068°30'0 0.0 300 / 101007.7 -2.8-2.9
2017-Jan-13 03:00N 48°30' W 068°30'0 0.0 330 / 71007.9 -1.8-1.9
2017-Jan-12 21:00N 48°30' W 068°30'0 0.0 050 / 61008.2 0.7 0.6-0.3
2017-Jan-12 18:00N 48°30' W 068°30'0 0.0 080 / 71006.4 1.0 0.3-0.3
2017-Jan-12 15:00N 48°30' W 068°30'0 0.0 340 / 61009.8 2.6-0.9
2017-Jan-12 12:00N 48°30' W 068°30'0 0.0 240 / 131010.2 4.4-4.5
2017-Jan-12 09:00N 48°30' W 068°30'0 0.0 210 / 221009.6 5.7-5.6
2017-Jan-12 06:00N 48°30' W 068°30'0 0.0 200 / 161011.4 4.6-4.3
2017-Jan-12 03:00N 48°30' W 068°30'0 0.0 200 / 201015.5 2.5-2.8
2017-Jan-12 00:00N 48°30' W 068°30'   210 / 171017.5 2.3-2.5

Dump ship's entire track history